createdAt,value
2019-05-25T00:00:36.461Z,70.29
2019-05-25T00:01:36.474Z,70.59
2019-05-25T00:02:36.439Z,70.39
2019-05-25T00:03:36.433Z,70.53
2019-05-25T00:04:36.419Z,70.73
2019-05-25T00:05:36.406Z,71.13
2019-05-25T00:06:36.398Z,71.23
2019-05-25T00:07:36.396Z,71.03
2019-05-25T00:08:36.374Z,71.23
2019-05-25T00:09:36.367Z,71.23
2019-05-25T00:10:36.353Z,71.44
2019-05-25T00:11:36.354Z,71.23
2019-05-25T00:12:36.342Z,71.37
2019-05-25T00:13:36.322Z,71.33
2019-05-25T00:14:36.310Z,71.77
2019-05-25T00:15:36.300Z,71.64
2019-05-25T00:16:36.296Z,71.57
2019-05-25T00:17:36.291Z,71.77
2019-05-25T00:18:36.266Z,72.08
2019-05-25T00:19:36.263Z,72.48
2019-05-25T00:20:36.248Z,72.08
2019-05-25T00:21:36.237Z,72.38
2019-05-25T00:22:36.238Z,72.28
2019-05-25T00:23:36.214Z,72.38
2019-05-25T00:24:36.203Z,72.38
2019-05-25T00:25:36.193Z,72.58
2019-05-25T00:26:36.181Z,72.58
2019-05-25T00:27:36.184Z,72.88
2019-05-25T00:28:36.219Z,72.78
2019-05-25T00:29:36.148Z,72.92
2019-05-25T00:30:36.139Z,73.22
2019-05-25T00:31:36.129Z,73.52
2019-05-25T00:32:36.127Z,73.02
2019-05-25T00:33:36.106Z,72.81
2019-05-25T00:34:36.094Z,73.12
2019-05-25T00:35:36.093Z,73.12
2019-05-25T00:36:36.073Z,73.63
2019-05-25T00:37:36.075Z,72.92
2019-05-25T00:38:36.052Z,73.02
2019-05-25T00:39:36.041Z,73.83
2019-05-25T00:40:36.038Z,73.02
2019-05-25T00:41:36.025Z,73.32
2019-05-25T00:42:36.021Z,73.83
2019-05-25T00:43:36.003Z,73.93
2019-05-25T00:44:35.990Z,73.72
2019-05-25T00:45:35.977Z,73.32
2019-05-25T00:46:35.981Z,73.83
2019-05-25T00:47:36.017Z,74.13
2019-05-25T00:48:35.944Z,74.43
2019-05-25T00:49:35.934Z,73.72
2019-05-25T00:50:35.935Z,74.33
2019-05-25T00:51:35.914Z,73.86
2019-05-25T00:52:35.915Z,74.77
2019-05-25T00:53:35.900Z,74.37
2019-05-25T00:54:35.882Z,74.37
2019-05-25T00:55:35.869Z,75.38
2019-05-25T00:56:35.859Z,74.98
2019-05-25T00:57:35.861Z,75.18
2019-05-25T00:58:35.837Z,75.28
2019-05-25T00:59:35.827Z,75.07
2019-05-25T01:00:35.815Z,74.57
2019-05-25T01:01:35.815Z,75.38
2019-05-25T01:02:35.830Z,75.38
2019-05-25T01:03:35.783Z,75.07
2019-05-25T01:04:35.773Z,74.37
2019-05-25T01:05:35.766Z,74.77
2019-05-25T01:06:35.751Z,73.96
2019-05-25T01:07:35.750Z,74.47
2019-05-25T01:08:35.743Z,74.16
2019-05-25T01:09:35.728Z,74.16
2019-05-25T01:10:35.708Z,74.37
2019-05-25T01:11:35.705Z,74.27
2019-05-25T01:12:35.690Z,74.27
2019-05-25T01:13:35.690Z,74.20
2019-05-25T01:14:35.685Z,74.57
2019-05-25T01:15:35.655Z,74.30
2019-05-25T01:16:35.649Z,73.90
2019-05-25T01:17:35.632Z,73.80
2019-05-25T01:18:35.635Z,74.00
2019-05-25T01:19:35.618Z,73.69
2019-05-25T01:20:35.601Z,73.56
2019-05-25T01:21:35.590Z,73.80
2019-05-25T01:22:35.583Z,73.59
2019-05-25T01:23:35.589Z,73.59
2019-05-25T01:24:44.296Z,74.51
2019-05-25T01:25:36.551Z,74.00
2019-05-25T01:26:35.541Z,74.40
2019-05-25T01:27:35.531Z,74.00
2019-05-25T01:28:37.797Z,74.60
2019-05-25T01:29:35.508Z,74.30
2019-05-25T01:30:35.493Z,74.60
2019-05-25T01:31:35.486Z,74.51
2019-05-25T01:32:35.477Z,74.51
2019-05-25T01:33:35.477Z,74.00
2019-05-25T01:34:35.451Z,74.54
2019-05-25T01:35:35.444Z,74.30
2019-05-25T01:36:35.429Z,74.40
2019-05-25T01:37:35.417Z,74.40
2019-05-25T01:38:35.418Z,74.44
2019-05-25T01:39:35.399Z,74.95
2019-05-25T01:40:35.385Z,74.40
2019-05-25T01:41:35.376Z,75.15
2019-05-25T01:42:35.366Z,75.35
2019-05-25T01:43:35.378Z,75.25
2019-05-25T01:44:35.344Z,75.25
2019-05-25T01:45:35.332Z,75.25
2019-05-25T01:46:35.323Z,74.54
2019-05-25T01:47:35.317Z,74.84
2019-05-25T01:48:35.310Z,75.15
2019-05-25T01:49:35.291Z,74.95
2019-05-25T01:50:35.281Z,74.84
2019-05-25T01:51:35.266Z,75.35
2019-05-25T01:52:35.256Z,75.76
2019-05-25T01:53:35.258Z,75.85
2019-05-25T01:54:35.239Z,75.76
2019-05-25T01:55:35.224Z,75.69
2019-05-25T01:56:35.213Z,75.38
2019-05-25T01:57:35.201Z,75.49
2019-05-25T01:58:35.205Z,75.89
2019-05-25T01:59:35.180Z,75.69
2019-05-25T02:00:35.179Z,75.49
2019-05-25T02:01:35.167Z,75.38
2019-05-25T02:02:35.151Z,76.20
2019-05-25T02:03:35.177Z,76.20
2019-05-25T02:04:35.127Z,76.29
2019-05-25T02:05:35.116Z,76.70
2019-05-25T02:06:35.108Z,76.70
2019-05-25T02:07:35.093Z,76.50
2019-05-25T02:08:35.093Z,76.40
2019-05-25T02:09:35.072Z,76.20
2019-05-25T02:10:35.063Z,76.70
2019-05-25T02:11:35.051Z,76.80
2019-05-25T02:12:35.040Z,77.82
2019-05-25T02:13:35.041Z,77.72
2019-05-25T02:14:35.020Z,77.04
2019-05-25T02:15:35.009Z,76.90
2019-05-25T02:16:34.997Z,77.31
2019-05-25T02:17:34.985Z,77.45
2019-05-25T02:18:34.973Z,77.65
2019-05-25T02:19:34.976Z,77.31
2019-05-25T02:20:34.952Z,77.41
2019-05-25T02:21:34.949Z,77.34
2019-05-25T02:22:34.955Z,77.65
2019-05-25T02:23:34.924Z,77.75
2019-05-25T02:24:34.920Z,77.95
2019-05-25T02:25:34.898Z,77.55
2019-05-25T02:26:34.888Z,77.45
2019-05-25T02:27:34.888Z,77.45
2019-05-25T02:28:34.868Z,77.45
2019-05-25T02:29:34.874Z,78.26
2019-05-25T02:30:34.845Z,77.95
2019-05-25T02:31:34.832Z,77.75
2019-05-25T02:32:34.822Z,77.75
2019-05-25T02:33:34.811Z,77.75
2019-05-25T02:34:34.811Z,77.55
2019-05-25T02:35:34.791Z,77.75
2019-05-25T02:36:34.785Z,78.06
2019-05-25T02:37:34.769Z,78.16
2019-05-25T02:38:34.757Z,77.99
2019-05-25T02:39:34.760Z,78.19
2019-05-25T02:40:34.736Z,77.75
2019-05-25T02:41:34.727Z,78.19
2019-05-25T02:42:34.714Z,78.60
2019-05-25T02:43:34.711Z,78.60
2019-05-25T02:44:34.706Z,77.89
2019-05-25T02:45:34.681Z,77.99
2019-05-25T02:46:34.673Z,78.19
2019-05-25T02:47:34.679Z,77.89
2019-05-25T02:48:34.652Z,78.09
2019-05-25T02:49:34.653Z,78.09
2019-05-25T02:50:34.627Z,78.19
2019-05-25T02:51:34.618Z,78.19
2019-05-25T02:52:34.607Z,77.99
2019-05-25T02:53:34.612Z,78.19
2019-05-25T02:54:34.594Z,77.99
2019-05-25T02:55:35.328Z,77.99
2019-05-25T02:56:34.565Z,78.19
2019-05-25T02:57:34.552Z,78.19
2019-05-25T02:58:34.544Z,77.79
2019-05-25T02:59:34.560Z,77.48
2019-05-25T03:00:34.522Z,77.59
2019-05-25T03:01:34.512Z,77.18
2019-05-25T03:02:34.509Z,77.48
2019-05-25T03:03:34.498Z,77.79
2019-05-25T03:04:34.490Z,77.59
2019-05-25T03:05:34.465Z,77.48
2019-05-25T03:06:34.455Z,77.48
2019-05-25T03:07:34.445Z,77.79
2019-05-25T03:08:34.435Z,77.62
2019-05-25T03:09:34.438Z,77.89
2019-05-25T03:10:34.422Z,77.99
2019-05-25T03:11:34.401Z,77.89
2019-05-25T03:12:34.390Z,78.13
2019-05-25T03:13:34.378Z,78.64
2019-05-25T03:14:34.388Z,78.50
2019-05-25T03:15:34.358Z,78.23
2019-05-25T03:16:34.353Z,78.13
2019-05-25T03:17:34.341Z,77.93
2019-05-25T03:18:34.325Z,78.13
2019-05-25T03:19:34.315Z,78.33
2019-05-25T03:20:34.310Z,78.23
2019-05-25T03:21:34.292Z,78.94
2019-05-25T03:22:34.285Z,79.04
2019-05-25T03:23:34.270Z,79.25
2019-05-25T03:24:34.262Z,79.14
2019-05-25T03:25:48.523Z,79.25
2019-05-25T03:26:35.239Z,79.25
2019-05-25T03:27:34.227Z,78.84
2019-05-25T03:28:34.219Z,79.35
2019-05-25T03:29:34.217Z,78.74
2019-05-25T03:30:34.213Z,78.74
2019-05-25T03:31:34.185Z,79.04
2019-05-25T03:32:34.173Z,79.35
2019-05-25T03:33:34.166Z,79.75
2019-05-25T03:34:34.198Z,80.16
2019-05-25T03:35:34.150Z,79.96
2019-05-25T03:36:34.133Z,79.75
2019-05-25T03:37:34.119Z,79.96
2019-05-25T03:38:34.113Z,79.75
2019-05-25T03:39:34.123Z,79.65
2019-05-25T03:40:34.098Z,80.06
2019-05-25T03:41:34.078Z,79.75
2019-05-25T03:42:34.065Z,79.96
2019-05-25T03:43:34.109Z,80.36
2019-05-25T03:44:34.050Z,80.16
2019-05-25T03:45:34.045Z,79.75
2019-05-25T03:46:34.022Z,80.36
2019-05-25T03:47:34.011Z,80.57
2019-05-25T03:48:34.001Z,79.75
2019-05-25T03:49:33.991Z,80.26
2019-05-25T03:50:34.004Z,79.55
2019-05-25T03:51:33.969Z,80.16
2019-05-25T03:52:33.959Z,79.65
2019-05-25T03:53:33.947Z,79.85
2019-05-25T03:54:33.936Z,79.96
2019-05-25T03:55:33.937Z,79.96
2019-05-25T03:56:33.923Z,79.75
2019-05-25T03:57:33.906Z,79.35
2019-05-25T03:58:33.893Z,79.25
2019-05-25T03:59:33.882Z,79.55
2019-05-25T04:00:33.883Z,79.65
2019-05-25T04:01:33.862Z,79.65
2019-05-25T04:02:33.849Z,79.55
2019-05-25T04:03:33.847Z,79.14
2019-05-25T04:04:33.829Z,79.14
2019-05-25T04:05:33.828Z,79.35
2019-05-25T04:06:33.806Z,79.55
2019-05-25T04:07:33.794Z,79.55
2019-05-25T04:08:33.791Z,79.65
2019-05-25T04:09:33.774Z,79.75
2019-05-25T04:10:33.762Z,79.04
2019-05-25T04:11:33.767Z,78.84
2019-05-25T04:12:33.740Z,79.55
2019-05-25T04:13:33.731Z,80.16
2019-05-25T04:14:33.720Z,80.16
2019-05-25T04:15:33.710Z,80.36
2019-05-25T04:16:33.712Z,80.46
2019-05-25T04:17:33.688Z,79.75
2019-05-25T04:18:33.676Z,79.35
2019-05-25T04:19:33.665Z,79.96
2019-05-25T04:20:33.656Z,79.96
2019-05-25T04:21:33.659Z,79.85
2019-05-25T04:22:33.632Z,80.16
2019-05-25T04:23:33.621Z,79.85
2019-05-25T04:24:33.611Z,79.55
2019-05-25T04:25:33.601Z,79.14
2019-05-25T04:26:33.605Z,79.14
2019-05-25T04:27:33.579Z,79.25
2019-05-25T04:28:33.567Z,79.04
2019-05-25T04:29:33.557Z,79.04
2019-05-25T04:30:33.547Z,79.25
2019-05-25T04:31:33.548Z,79.11
2019-05-25T04:32:33.529Z,78.94
2019-05-25T04:33:33.514Z,79.21
2019-05-25T04:34:33.504Z,79.11
2019-05-25T04:35:33.505Z,78.91
2019-05-25T04:36:33.494Z,78.60
2019-05-25T04:37:33.480Z,78.50
2019-05-25T04:38:33.459Z,79.11
2019-05-25T04:39:33.448Z,79.11
2019-05-25T04:40:33.438Z,78.91
2019-05-25T04:41:33.439Z,78.77
2019-05-25T04:42:33.417Z,78.66
2019-05-25T04:43:33.407Z,78.46
2019-05-25T04:44:33.402Z,78.46
2019-05-25T04:45:33.404Z,78.66
2019-05-25T04:46:33.385Z,79.27
2019-05-25T04:47:33.368Z,78.97
2019-05-25T04:48:33.355Z,78.36
2019-05-25T04:49:33.349Z,78.46
2019-05-25T04:50:33.331Z,78.97
2019-05-25T04:51:33.335Z,78.66
2019-05-25T04:52:33.308Z,78.36
2019-05-25T04:53:33.298Z,77.95
2019-05-25T04:54:33.288Z,77.95
2019-05-25T04:55:33.275Z,78.12
2019-05-25T04:56:39.558Z,77.92
2019-05-25T04:57:34.255Z,78.26
2019-05-25T04:58:33.258Z,77.86
2019-05-25T04:59:33.232Z,78.06
2019-05-25T05:00:33.226Z,78.02
2019-05-25T05:01:33.225Z,77.95
2019-05-25T05:02:33.201Z,77.92
2019-05-25T05:03:33.204Z,77.72
2019-05-25T05:04:33.178Z,77.82
2019-05-25T05:05:33.168Z,77.82
2019-05-25T05:06:33.323Z,77.61
2019-05-25T05:07:33.147Z,77.82
2019-05-25T05:08:35.591Z,78.12
2019-05-25T05:09:33.126Z,78.02
2019-05-25T05:10:33.117Z,78.63
2019-05-25T05:11:33.115Z,78.73
2019-05-25T05:12:33.103Z,78.59
2019-05-25T05:13:33.086Z,78.63
2019-05-25T05:14:33.071Z,78.42
2019-05-25T05:15:33.062Z,78.08
2019-05-25T05:16:33.053Z,78.08
2019-05-25T05:17:33.051Z,77.92
2019-05-25T05:18:33.027Z,77.98
2019-05-25T05:19:33.017Z,77.88
2019-05-25T05:20:33.006Z,77.78
2019-05-25T05:21:32.994Z,77.58
2019-05-25T05:22:33.006Z,77.37
2019-05-25T05:23:32.973Z,77.28
2019-05-25T05:24:32.964Z,77.48
2019-05-25T05:25:32.953Z,77.58
2019-05-25T05:26:32.940Z,76.87
2019-05-25T05:27:32.946Z,77.78
2019-05-25T05:28:32.920Z,77.44
2019-05-25T05:29:32.910Z,77.58
2019-05-25T05:30:32.904Z,77.68
2019-05-25T05:31:32.888Z,77.68
2019-05-25T05:32:32.887Z,77.28
2019-05-25T05:33:32.885Z,77.58
2019-05-25T05:34:32.863Z,77.34
2019-05-25T05:35:32.846Z,77.44
2019-05-25T05:36:32.842Z,77.44
2019-05-25T05:37:32.837Z,77.44
2019-05-25T05:38:32.814Z,77.44
2019-05-25T05:39:32.812Z,77.34
2019-05-25T05:40:32.801Z,77.24
2019-05-25T05:41:32.794Z,77.03
2019-05-25T05:42:32.784Z,76.83
2019-05-25T05:43:32.758Z,76.73
2019-05-25T05:44:32.747Z,76.93
2019-05-25T05:45:32.759Z,77.34
2019-05-25T05:46:32.731Z,77.03
2019-05-25T05:47:32.731Z,77.44
2019-05-25T05:48:32.712Z,77.64
2019-05-25T05:49:32.700Z,77.64
2019-05-25T05:50:32.682Z,77.54
2019-05-25T05:51:32.775Z,77.54
2019-05-25T05:52:32.682Z,76.83
2019-05-25T05:53:32.651Z,77.34
2019-05-25T05:54:32.729Z,77.24
2019-05-25T05:55:32.630Z,77.54
2019-05-25T05:56:32.617Z,77.54
2019-05-25T05:57:32.619Z,77.64
2019-05-25T05:58:32.604Z,77.64
2019-05-25T05:59:32.586Z,76.93
2019-05-25T06:00:32.576Z,77.14
2019-05-25T06:01:32.566Z,76.93
2019-05-25T06:02:32.568Z,77.44
2019-05-25T06:03:32.543Z,77.34
2019-05-25T06:04:32.548Z,77.03
2019-05-25T06:05:32.522Z,77.58
2019-05-25T06:06:32.511Z,77.34
2019-05-25T06:07:32.513Z,77.58
2019-05-25T06:08:32.492Z,77.98
2019-05-25T06:09:32.488Z,78.55
2019-05-25T06:10:32.469Z,78.49
2019-05-25T06:11:32.457Z,78.49
2019-05-25T06:12:32.459Z,78.39
2019-05-25T06:13:32.436Z,78.39
2019-05-25T06:14:32.440Z,77.98
2019-05-25T06:15:32.423Z,78.39
2019-05-25T06:16:32.404Z,78.28
2019-05-25T06:17:32.404Z,77.98
2019-05-25T06:18:32.382Z,77.98
2019-05-25T06:19:32.372Z,78.08
2019-05-25T06:20:32.360Z,78.08
2019-05-25T06:21:32.365Z,77.98
2019-05-25T06:22:32.357Z,77.78
2019-05-25T06:23:32.332Z,77.58
2019-05-25T06:24:32.318Z,76.63
2019-05-25T06:25:32.318Z,76.46
2019-05-25T06:26:32.297Z,76.67
2019-05-25T06:27:32.303Z,76.63
2019-05-25T06:28:32.276Z,76.53
2019-05-25T06:29:32.270Z,76.23
2019-05-25T06:30:32.252Z,77.03
2019-05-25T06:31:32.242Z,77.54
2019-05-25T06:32:32.241Z,77.95
2019-05-25T06:33:32.219Z,75.31
2019-05-25T06:34:32.216Z,74.20
2019-05-25T06:35:32.212Z,73.76
2019-05-25T06:36:32.191Z,73.39
2019-05-25T06:37:32.191Z,72.95
2019-05-25T06:38:32.169Z,72.99
2019-05-25T06:39:32.157Z,73.05
2019-05-25T06:40:32.144Z,72.75
2019-05-25T06:41:32.135Z,72.95
2019-05-25T06:42:32.137Z,73.56
2019-05-25T06:43:32.112Z,73.15
2019-05-25T06:44:32.110Z,72.95
2019-05-25T06:45:32.096Z,72.55
2019-05-25T06:46:32.130Z,72.72
2019-05-25T06:47:32.081Z,72.51
2019-05-25T06:48:32.061Z,72.41
2019-05-25T06:49:32.049Z,72.01
2019-05-25T06:50:32.038Z,72.41
2019-05-25T06:51:32.030Z,72.41
2019-05-25T06:52:32.027Z,72.81
2019-05-25T06:53:32.010Z,72.81
2019-05-25T06:54:31.994Z,72.51
2019-05-25T06:55:31.984Z,73.08
2019-05-25T06:56:31.975Z,72.08
2019-05-25T06:57:42.680Z,71.57
2019-05-25T06:58:32.952Z,71.57
2019-05-25T06:59:31.941Z,71.17
2019-05-25T07:00:31.930Z,71.57
2019-05-25T07:01:31.920Z,71.37
2019-05-25T07:02:31.910Z,71.17
2019-05-25T07:03:31.905Z,71.67
2019-05-25T07:04:31.891Z,72.08
2019-05-25T07:05:31.876Z,70.76
2019-05-25T07:06:31.867Z,70.62
2019-05-25T07:07:31.858Z,70.73
2019-05-25T07:08:31.848Z,70.53
2019-05-25T07:09:31.836Z,70.42
2019-05-25T07:10:31.828Z,70.02
2019-05-25T07:11:31.811Z,69.82
2019-05-25T07:12:31.804Z,70.12
2019-05-25T07:13:31.803Z,69.98
2019-05-25T07:14:31.781Z,70.39
2019-05-25T07:15:31.770Z,70.39
2019-05-25T07:16:31.761Z,69.98
2019-05-25T07:17:31.747Z,70.29
2019-05-25T07:18:35.281Z,70.09
2019-05-25T07:19:31.728Z,70.19
2019-05-25T07:20:31.714Z,70.29
2019-05-25T07:21:31.705Z,70.79
2019-05-25T07:22:31.699Z,70.89
2019-05-25T07:23:31.694Z,70.56
2019-05-25T07:24:31.674Z,70.06
2019-05-25T07:25:31.661Z,70.15
2019-05-25T07:26:31.652Z,69.95
2019-05-25T07:27:31.649Z,69.65
2019-05-25T07:28:31.650Z,69.04
2019-05-25T07:29:31.630Z,68.95
2019-05-25T07:30:31.610Z,68.84
2019-05-25T07:31:31.599Z,69.01
2019-05-25T07:32:31.585Z,68.81
2019-05-25T07:33:31.586Z,67.30
2019-05-25T07:34:31.563Z,66.79
2019-05-25T07:35:31.550Z,66.79
2019-05-25T07:36:31.540Z,66.69
2019-05-25T07:37:31.531Z,66.89
2019-05-25T07:38:31.536Z,66.69
2019-05-25T07:39:31.513Z,66.05
2019-05-25T07:40:31.500Z,66.76
2019-05-25T07:41:31.491Z,65.85
2019-05-25T07:42:31.477Z,65.22
2019-05-25T07:43:31.481Z,65.92
2019-05-25T07:44:31.453Z,65.92
2019-05-25T07:45:31.446Z,65.19
2019-05-25T07:46:31.431Z,65.99
2019-05-25T07:47:31.436Z,65.89
2019-05-25T07:48:31.439Z,65.76
2019-05-25T07:49:31.400Z,65.86
2019-05-25T07:50:31.390Z,66.23
2019-05-25T07:51:31.376Z,64.82
2019-05-25T07:52:31.365Z,64.22
2019-05-25T07:53:31.371Z,64.72
2019-05-25T07:54:31.354Z,63.89
2019-05-25T07:55:31.415Z,62.38
2019-05-25T07:56:31.330Z,62.68
2019-05-25T07:57:31.312Z,63.48
2019-05-25T07:58:31.313Z,62.58
2019-05-25T07:59:31.291Z,62.55
2019-05-25T08:00:31.280Z,61.71
2019-05-25T08:01:31.273Z,61.14
2019-05-25T08:02:31.259Z,61.91
2019-05-25T08:03:31.275Z,61.41
2019-05-25T08:04:31.236Z,61.08
2019-05-25T08:05:31.225Z,60.78
2019-05-25T08:06:31.234Z,60.58
2019-05-25T08:07:31.216Z,60.38
2019-05-25T08:08:31.199Z,60.68
2019-05-25T08:09:31.288Z,60.58
2019-05-25T08:10:31.172Z,60.58
2019-05-25T08:11:31.164Z,60.58
2019-05-25T08:12:31.187Z,61.38
2019-05-25T08:13:31.140Z,61.69
2019-05-25T08:14:31.141Z,61.99
2019-05-25T08:15:31.125Z,61.66
2019-05-25T08:16:31.109Z,61.96
2019-05-25T08:17:31.097Z,61.76
2019-05-25T08:18:31.087Z,61.25
2019-05-25T08:19:31.087Z,61.66
2019-05-25T08:20:31.066Z,61.66
2019-05-25T08:21:31.060Z,60.55
2019-05-25T08:22:31.042Z,61.55
2019-05-25T08:23:31.032Z,61.55
2019-05-25T08:24:31.034Z,61.25
2019-05-25T08:25:31.010Z,61.25
2019-05-25T08:26:31.009Z,61.25
2019-05-25T08:27:31.002Z,60.96
2019-05-25T08:28:33.031Z,61.25
2019-05-25T08:29:30.979Z,61.25
2019-05-25T08:30:30.961Z,61.43
2019-05-25T08:31:30.949Z,61.02
2019-05-25T08:32:30.934Z,61.02
2019-05-25T08:33:30.948Z,60.62
2019-05-25T08:34:30.927Z,60.65
2019-05-25T08:35:30.902Z,60.05
2019-05-25T08:36:30.890Z,61.05
2019-05-25T08:37:30.881Z,61.35
2019-05-25T08:38:30.869Z,61.86
2019-05-25T08:39:30.873Z,60.35
2019-05-25T08:40:30.868Z,60.42
2019-05-25T08:41:30.837Z,61.15
2019-05-25T08:42:30.827Z,61.93
2019-05-25T08:43:30.815Z,62.03
2019-05-25T08:44:30.815Z,60.82
2019-05-25T08:45:30.803Z,61.72
2019-05-25T08:46:30.782Z,61.00
2019-05-25T08:47:30.775Z,60.69
2019-05-25T08:48:30.761Z,61.00
2019-05-25T08:49:30.761Z,61.10
2019-05-25T08:50:38.316Z,60.89
2019-05-25T08:51:31.727Z,60.80
2019-05-25T08:52:30.717Z,61.10
2019-05-25T08:53:40.755Z,60.89
2019-05-25T08:54:31.714Z,60.69
2019-05-25T08:55:30.685Z,60.69
2019-05-25T08:56:30.676Z,60.80
2019-05-25T08:57:30.665Z,60.39
2019-05-25T08:58:30.651Z,60.39
2019-05-25T08:59:30.642Z,60.57
2019-05-25T09:00:30.635Z,60.60
2019-05-25T09:01:30.625Z,60.29
2019-05-25T09:02:30.614Z,59.39
2019-05-25T09:03:30.598Z,59.66
2019-05-25T09:04:30.588Z,59.06
2019-05-25T09:05:30.582Z,59.16
2019-05-25T09:06:30.569Z,59.36
2019-05-25T09:07:30.565Z,59.16
2019-05-25T09:08:30.570Z,59.36
2019-05-25T09:09:30.534Z,59.13
2019-05-25T09:10:30.534Z,59.94
2019-05-25T09:11:30.514Z,59.23
2019-05-25T09:12:30.502Z,59.13
2019-05-25T09:13:30.489Z,59.03
2019-05-25T09:14:30.481Z,58.63
2019-05-25T09:15:30.485Z,58.11
2019-05-25T09:16:30.462Z,58.61
2019-05-25T09:17:30.447Z,58.81
2019-05-25T09:18:30.439Z,58.50
2019-05-25T09:19:30.425Z,58.50
2019-05-25T09:20:30.419Z,57.80
2019-05-25T09:21:30.404Z,57.57
2019-05-25T09:22:30.395Z,57.48
2019-05-25T09:23:30.383Z,57.07
2019-05-25T09:24:30.371Z,56.48
2019-05-25T09:25:30.394Z,56.65
2019-05-25T09:26:30.350Z,56.05
2019-05-25T09:27:30.364Z,56.35
2019-05-25T09:28:30.328Z,55.85
2019-05-25T09:29:30.318Z,55.98
2019-05-25T09:30:30.316Z,56.67
2019-05-25T09:31:30.299Z,55.98
2019-05-25T09:32:30.329Z,56.24
2019-05-25T09:33:30.275Z,55.05
2019-05-25T09:34:30.269Z,55.85
2019-05-25T09:35:30.258Z,55.05
2019-05-25T09:36:30.247Z,55.12
2019-05-25T09:37:30.268Z,55.49
2019-05-25T09:38:30.249Z,53.79
2019-05-25T09:39:30.228Z,54.19
2019-05-25T09:40:30.207Z,53.57
2019-05-25T09:41:30.191Z,53.64
2019-05-25T09:42:30.183Z,53.54
2019-05-25T09:43:30.169Z,53.52
2019-05-25T09:44:30.162Z,52.49
2019-05-25T09:45:30.154Z,51.37
2019-05-25T09:46:30.138Z,51.25
2019-05-25T09:47:30.129Z,51.12
2019-05-25T09:48:30.116Z,50.32
2019-05-25T09:49:30.105Z,50.30
2019-05-25T09:50:30.103Z,50.50
2019-05-25T09:51:30.084Z,49.88
2019-05-25T09:52:30.072Z,50.30
2019-05-25T09:53:30.080Z,50.30
2019-05-25T09:54:30.051Z,50.57
2019-05-25T09:55:30.044Z,48.38
2019-05-25T09:56:30.031Z,48.41
2019-05-25T09:57:30.021Z,49.60
2019-05-25T09:58:30.011Z,49.40
2019-05-25T09:59:29.997Z,49.10
2019-05-25T10:00:29.993Z,50.32
2019-05-25T10:01:30.001Z,49.63
2019-05-25T10:02:29.975Z,49.13
2019-05-25T10:03:29.957Z,49.43
2019-05-25T10:04:29.944Z,48.93
2019-05-25T10:05:29.936Z,48.93
2019-05-25T10:06:29.948Z,49.23
2019-05-25T10:07:29.912Z,48.83
2019-05-25T10:08:29.900Z,50.25
2019-05-25T10:09:29.892Z,50.55
2019-05-25T10:10:29.900Z,49.95
2019-05-25T10:11:29.869Z,51.97
2019-05-25T10:12:29.858Z,52.14
2019-05-25T10:13:29.848Z,51.57
2019-05-25T10:14:29.837Z,51.07
2019-05-25T10:15:29.837Z,51.27
2019-05-25T10:16:29.819Z,50.97
2019-05-25T10:17:29.804Z,51.27
2019-05-25T10:18:29.794Z,50.57
2019-05-25T10:19:29.783Z,50.40
2019-05-25T10:20:29.787Z,51.10
2019-05-25T10:21:29.765Z,51.10
2019-05-25T10:22:29.754Z,51.29
2019-05-25T10:23:29.743Z,51.40
2019-05-25T10:24:29.730Z,51.62
2019-05-25T10:25:29.731Z,51.82
2019-05-25T10:26:29.708Z,50.32
2019-05-25T10:27:29.699Z,51.64
2019-05-25T10:28:29.690Z,52.12
2019-05-25T10:29:37.078Z,50.95
2019-05-25T10:30:30.676Z,50.95
2019-05-25T10:31:29.654Z,51.54
2019-05-25T10:32:29.643Z,52.34
2019-05-25T10:33:29.629Z,52.27
2019-05-25T10:34:29.624Z,52.17
2019-05-25T10:35:29.630Z,51.57
2019-05-25T10:36:29.597Z,52.37
2019-05-25T10:37:29.590Z,52.19
2019-05-25T10:38:29.575Z,52.57
2019-05-25T10:39:29.565Z,52.49
2019-05-25T10:40:29.570Z,52.59
2019-05-25T10:41:29.544Z,52.59
2019-05-25T10:42:29.532Z,52.59
2019-05-25T10:43:29.521Z,52.49
2019-05-25T10:44:29.511Z,53.30
2019-05-25T10:45:29.533Z,53.09
2019-05-25T10:46:29.495Z,53.19
2019-05-25T10:47:29.527Z,52.49
2019-05-25T10:48:29.466Z,52.59
2019-05-25T10:49:29.457Z,53.39
2019-05-25T10:50:29.465Z,52.99
2019-05-25T10:51:29.434Z,53.09
2019-05-25T10:52:29.427Z,53.09
2019-05-25T10:53:29.414Z,52.92
2019-05-25T10:54:29.402Z,53.89
2019-05-25T10:55:29.401Z,53.12
2019-05-25T10:56:29.381Z,53.42
2019-05-25T10:57:29.369Z,54.10
2019-05-25T10:58:29.363Z,54.19
2019-05-25T10:59:29.348Z,54.42
2019-05-25T11:00:29.362Z,54.19
2019-05-25T11:01:29.326Z,53.79
2019-05-25T11:02:29.320Z,54.10
2019-05-25T11:03:29.305Z,53.59
2019-05-25T11:04:29.293Z,54.17
2019-05-25T11:05:29.280Z,54.17
2019-05-25T11:06:29.283Z,53.87
2019-05-25T11:07:29.262Z,54.06
2019-05-25T11:08:29.249Z,53.74
2019-05-25T11:09:29.243Z,53.54
2019-05-25T11:10:29.275Z,54.04
2019-05-25T11:11:29.227Z,52.82
2019-05-25T11:12:29.206Z,52.34
2019-05-25T11:13:29.195Z,53.14
2019-05-25T11:14:29.186Z,52.22
2019-05-25T11:15:29.177Z,52.22
2019-05-25T11:16:29.186Z,51.89
2019-05-25T11:17:29.150Z,51.92
2019-05-25T11:18:29.158Z,52.99
2019-05-25T11:19:29.149Z,53.12
2019-05-25T11:20:29.130Z,53.39
2019-05-25T11:21:29.121Z,53.39
2019-05-25T11:22:29.100Z,53.49
2019-05-25T11:23:29.085Z,53.39
2019-05-25T11:24:29.076Z,53.59
2019-05-25T11:25:29.066Z,53.99
2019-05-25T11:26:29.067Z,52.97
2019-05-25T11:27:29.048Z,52.97
2019-05-25T11:28:29.035Z,53.17
2019-05-25T11:29:29.022Z,52.47
2019-05-25T11:30:29.014Z,52.57
2019-05-25T11:31:29.118Z,52.37
2019-05-25T11:32:28.993Z,52.87
2019-05-25T11:33:28.988Z,52.76
2019-05-25T11:34:28.973Z,52.47
2019-05-25T11:35:28.958Z,52.74
2019-05-25T11:36:28.959Z,52.25
2019-05-25T11:37:28.938Z,51.95
2019-05-25T11:38:28.926Z,52.02
2019-05-25T11:39:28.919Z,52.02
2019-05-25T11:40:28.905Z,50.20
2019-05-25T11:41:28.909Z,49.88
2019-05-25T11:42:28.885Z,49.04
2019-05-25T11:43:28.875Z,48.81
2019-05-25T11:44:28.862Z,47.10
2019-05-25T11:45:28.873Z,47.40
2019-05-25T11:46:28.852Z,47.20
2019-05-25T11:47:28.831Z,47.38
2019-05-25T11:48:28.831Z,47.28
2019-05-25T11:49:28.808Z,47.57
2019-05-25T11:50:28.797Z,46.98
2019-05-25T11:51:28.815Z,46.58
2019-05-25T11:52:28.778Z,46.16
2019-05-25T11:53:28.773Z,45.37
2019-05-25T11:54:28.866Z,45.17
2019-05-25T11:55:28.746Z,46.26
2019-05-25T11:56:28.747Z,46.12
2019-05-25T11:57:28.725Z,45.30
2019-05-25T11:58:28.720Z,44.31
2019-05-25T11:59:28.703Z,44.59
2019-05-25T12:00:28.698Z,44.39
2019-05-25T12:01:28.706Z,44.43
2019-05-25T12:02:28.672Z,45.42
2019-05-25T12:03:28.670Z,45.15
2019-05-25T12:04:28.652Z,45.34
2019-05-25T12:05:28.639Z,44.65
2019-05-25T12:06:28.643Z,45.12
2019-05-25T12:07:28.618Z,45.82
2019-05-25T12:08:28.606Z,44.04
2019-05-25T12:09:28.597Z,44.53
2019-05-25T12:10:28.585Z,43.22
2019-05-25T12:11:28.604Z,43.10
2019-05-25T12:12:28.563Z,42.88
2019-05-25T12:13:31.953Z,43.20
2019-05-25T12:14:28.545Z,43.28
2019-05-25T12:15:28.532Z,42.49
2019-05-25T12:16:28.539Z,42.88
2019-05-25T12:17:28.510Z,42.50
2019-05-25T12:18:28.503Z,42.90
2019-05-25T12:19:28.490Z,43.30
2019-05-25T12:20:28.487Z,43.48
2019-05-25T12:21:28.484Z,42.88
2019-05-25T12:22:28.459Z,42.66
2019-05-25T12:23:28.449Z,41.95
2019-05-25T12:24:28.443Z,42.03
2019-05-25T12:25:28.427Z,40.41
2019-05-25T12:26:28.430Z,38.81
2019-05-25T12:27:28.408Z,38.26
2019-05-25T12:28:28.412Z,37.12
2019-05-25T12:29:28.388Z,36.18
2019-05-25T12:30:40.217Z,34.47
2019-05-25T12:31:29.382Z,35.21
2019-05-25T12:32:28.361Z,32.81
2019-05-25T12:33:28.349Z,31.29
2019-05-25T12:34:28.341Z,31.15
2019-05-25T12:35:28.332Z,29.83
2019-05-25T12:36:28.333Z,27.93
2019-05-25T12:37:28.316Z,28.29
2019-05-25T12:38:28.306Z,28.39
2019-05-25T12:39:28.299Z,28.47
2019-05-25T12:40:28.282Z,26.59
2019-05-25T12:41:28.285Z,25.58
2019-05-25T12:42:28.263Z,25.16
2019-05-25T12:43:28.254Z,25.51
2019-05-25T12:44:28.285Z,24.23
2019-05-25T12:45:28.293Z,22.57
2019-05-25T12:46:28.266Z,22.63
2019-05-25T12:47:28.221Z,21.94
2019-05-25T12:48:28.209Z,22.12
2019-05-25T12:49:28.200Z,21.22
2019-05-25T12:50:28.194Z,20.64
2019-05-25T12:51:28.198Z,20.54
2019-05-25T12:52:28.178Z,20.43